»·PEaware :: DAL509 KMSP-KATL

DAL509 :: KMSP-KATL

FLIGHT INFORMATION

Flight Status: Arrived
Operator:
Delta Air Lines
More flights by this operator :: More flights under this callsign
Pilot: Anonymous 14085 (14085)
Aircraft: Unknown
(A359)
More flights by this aircraft type
Origin: KMSP Minneapolis-St Paul Intl
United States
Destination: KATL Hartsfield-Jackson Atlanta
United States
More flights between these airports :: More routes between these airports
Route: ZMBRO7 ODI J30 BRIBE ENL PLESS J45 TINGS BNA NEWBB IHAVE MTHEW CHPPR1
File this flight plan on PilotEdge
Remarks: RMK / SIMBRIEF
Altitude:
(Current/Filed)
39,000ft
Speed:
(Current/Filed)
485kts
Departed: 20-Sep-20 09:40 AM
Arrived: 20-Sep-20 11:35 AM
Distance/Time
Traveled:
788nm/1:55
Distance/Time
To Go:
Arrived

Flight Plot

Page will automatically refresh every two minutes.

Flight plan parsing failed; only flown route is shown


Map Options




Map Legend


Flown Route
Filed Route
Departure Airport
Arrival Airport
Navaid (VOR, NDB)
Fix

Horizontal Profiles

Position Reports

Time Latitude Longitude Heading Altitude Ground
Speed
20-Sep-20 08:59 44.880871 -93.211334 50 851ft 0kts
20-Sep-20 09:00 44.880871 -93.211334 50 851ft 0kts
20-Sep-20 09:01 44.880871 -93.211334 50 851ft 0kts
20-Sep-20 09:02 44.880871 -93.211334 50 852ft 0kts
20-Sep-20 09:03 44.880872 -93.211334 50 852ft 0kts
20-Sep-20 09:04 44.880871 -93.211334 50 852ft 0kts
20-Sep-20 09:05 44.880872 -93.211334 50 852ft 0kts
20-Sep-20 09:06 44.880872 -93.211334 50 852ft 0kts
20-Sep-20 09:06 44.880872 -93.211334 50 852ft 0kts
20-Sep-20 09:08 44.880872 -93.211334 50 852ft 0kts
20-Sep-20 09:09 44.880871 -93.211334 50 852ft 0kts
20-Sep-20 09:09 44.880871 -93.211334 50 852ft 0kts
20-Sep-20 09:10 44.880872 -93.211334 50 852ft 0kts
20-Sep-20 09:12 44.880872 -93.211334 50 852ft 0kts
20-Sep-20 09:12 44.880872 -93.211334 50 852ft 0kts
20-Sep-20 09:17 44.880871 -93.211334 50 851ft 0kts
20-Sep-20 09:18 44.880871 -93.211334 50 851ft 0kts
20-Sep-20 09:19 44.880871 -93.211334 50 851ft 0kts
20-Sep-20 09:20 44.880871 -93.211334 50 851ft 0kts
20-Sep-20 09:21 44.880871 -93.211334 50 851ft 0kts
20-Sep-20 09:22 44.880871 -93.211334 50 851ft 0kts
20-Sep-20 09:23 44.880871 -93.211334 50 851ft 0kts
20-Sep-20 09:24 44.880871 -93.211334 50 851ft 0kts
20-Sep-20 09:25 44.880871 -93.211334 50 851ft 0kts
20-Sep-20 09:26 44.880871 -93.211334 50 851ft 0kts
20-Sep-20 09:27 44.880871 -93.211334 50 851ft 0kts
20-Sep-20 09:28 44.880871 -93.211334 50 851ft 0kts
20-Sep-20 09:29 44.880871 -93.211334 50 851ft 0kts
20-Sep-20 09:30 44.880871 -93.211334 50 851ft 0kts
20-Sep-20 09:31 44.880764 -93.211597 77 852ft 2kts
20-Sep-20 09:32 44.880930 -93.212381 122 852ft 2kts
20-Sep-20 09:33 44.880957 -93.212442 121 852ft 0kts
20-Sep-20 09:34 44.880664 -93.212062 158 852ft 7kts
20-Sep-20 09:35 44.880396 -93.214117 303 852ft 7kts
20-Sep-20 09:36 44.881789 -93.217246 300 851ft 25kts
20-Sep-20 09:37 44.886639 -93.228550 300 852ft 35kts
20-Sep-20 09:38 44.888715 -93.236084 141 852ft 10kts
20-Sep-20 09:39 44.873835 -93.201053 121 1300ft 174kts
20-Sep-20 09:40 44.863411 -93.133965 107 3837ft 186kts
20-Sep-20 09:41 44.832049 -93.079497 155 5988ft 209kts
20-Sep-20 09:42 44.787082 -93.039822 150 7617ft 259kts
20-Sep-20 09:43 44.724986 -92.980596 150 10428ft 280kts
20-Sep-20 09:44 44.654050 -92.912537 149 11996ft 340kts
20-Sep-20 09:45 44.569405 -92.831185 148 13557ft 391kts
20-Sep-20 09:46 44.478595 -92.742507 141 16116ft 408kts
20-Sep-20 09:47 44.411086 -92.611285 122 18448ft 428kts
20-Sep-20 09:48 44.350212 -92.466918 122 19974ft 429kts
20-Sep-20 09:49 44.288327 -92.323304 123 19715ft 436kts
20-Sep-20 09:50 44.225061 -92.178234 124 20273ft 443kts
20-Sep-20 09:51 44.160277 -92.030208 123 22483ft 453kts
20-Sep-20 09:52 44.095367 -91.881677 123 24421ft 465kts
20-Sep-20 09:53 44.027013 -91.726313 123 26233ft 478kts
20-Sep-20 09:54 43.956622 -91.567223 123 27895ft 490kts
20-Sep-20 09:55 43.874793 -91.414505 135 29430ft 498kts
20-Sep-20 09:56 43.777875 -91.279095 136 31443ft 494kts
20-Sep-20 09:57 43.681752 -91.144787 136 33213ft 492kts
20-Sep-20 09:58 43.585106 -91.010487 136 34475ft 497kts
20-Sep-20 09:59 43.487200 -90.875024 136 35744ft 499kts
20-Sep-20 10:00 43.389758 -90.740833 136 37015ft 497kts
20-Sep-20 10:28 39.876636 -89.408101 175 39426ft 486kts
20-Sep-20 10:29 39.743260 -89.384971 175 39427ft 486kts
20-Sep-20 10:30 39.609666 -89.361836 175 39427ft 491kts
20-Sep-20 10:31 39.471838 -89.337814 175 39424ft 507kts
20-Sep-20 10:32 39.332320 -89.313497 176 39423ft 508kts
20-Sep-20 10:33 39.192205 -89.289463 176 39423ft 508kts
20-Sep-20 10:34 39.052498 -89.265619 176 39423ft 508kts
20-Sep-20 10:35 38.912413 -89.241829 176 39416ft 511kts
20-Sep-20 10:36 38.776212 -89.218764 176 39404ft 489kts
20-Sep-20 10:37 38.642857 -89.196275 176 39393ft 464kts
20-Sep-20 10:38 38.516548 -89.175099 176 39396ft 461kts
20-Sep-20 10:39 38.389998 -89.149385 169 39395ft 464kts
20-Sep-20 10:40 38.265202 -89.108991 169 39397ft 464kts
20-Sep-20 10:41 38.140454 -89.068842 169 39400ft 464kts
20-Sep-20 10:42 38.015284 -89.028734 169 39401ft 464kts
20-Sep-20 10:43 37.890474 -88.988384 166 39390ft 466kts
20-Sep-20 10:44 37.776171 -88.911175 142 39388ft 476kts
20-Sep-20 10:45 37.685061 -88.788806 132 39387ft 479kts
20-Sep-20 10:46 37.596336 -88.663992 133 39387ft 479kts
20-Sep-20 10:47 37.507178 -88.539686 133 39385ft 479kts
20-Sep-20 10:48 37.417834 -88.415445 133 39385ft 479kts
20-Sep-20 10:50 37.328330 -88.291183 134 39376ft 479kts
20-Sep-20 10:51 37.238973 -88.167765 134 39372ft 479kts
20-Sep-20 10:52 37.149295 -88.044527 134 39368ft 479kts
20-Sep-20 10:53 37.059410 -87.921437 134 39353ft 478kts
20-Sep-20 10:54 36.969965 -87.799427 134 39350ft 477kts
20-Sep-20 10:55 36.880292 -87.677723 135 39350ft 476kts
20-Sep-20 10:56 36.790346 -87.556557 134 39350ft 476kts
20-Sep-20 10:57 36.700581 -87.435555 134 39350ft 476kts
20-Sep-20 10:58 36.611079 -87.315149 135 39355ft 476kts
20-Sep-20 10:59 36.521155 -87.194349 135 39356ft 476kts
20-Sep-20 11:00 36.431265 -87.074398 135 39354ft 477kts
20-Sep-20 11:01 36.340502 -86.953748 136 39334ft 481kts
20-Sep-20 11:02 36.248929 -86.832489 136 39323ft 484kts
20-Sep-20 11:03 36.155323 -86.713535 142 39332ft 481kts
20-Sep-20 11:04 36.046378 -86.620599 154 39346ft 480kts
20-Sep-20 11:05 35.927871 -86.537836 154 39342ft 501kts
20-Sep-20 11:05 35.826494 -86.466820 154 39331ft 503kts
20-Sep-20 11:07 35.685435 -86.367750 153 39325ft 502kts
20-Sep-20 11:08 35.564726 -86.281631 154 39326ft 502kts
20-Sep-20 11:08 35.464084 -86.210512 154 39195ft 504kts
20-Sep-20 11:09 35.349332 -86.108563 145 36866ft 512kts
20-Sep-20 11:11 35.219132 -85.982431 145 33603ft 513kts
20-Sep-20 11:11 35.125340 -85.893080 143 30799ft 521kts
20-Sep-20 11:12 35.010506 -85.783631 142 27411ft 522kts
20-Sep-20 11:14 34.880735 -85.660264 145 24792ft 495kts
20-Sep-20 11:14 34.807083 -85.590466 144 24232ft 428kts
20-Sep-20 11:15 34.713420 -85.502511 144 23229ft 422kts
20-Sep-20 11:16 34.621437 -85.415832 143 22220ft 416kts
20-Sep-20 11:17 34.530873 -85.330583 143 20581ft 407kts
20-Sep-20 11:18 34.442924 -85.247730 142 18468ft 394kts
20-Sep-20 11:19 34.357533 -85.167973 140 16277ft 387kts
20-Sep-20 11:20 34.271959 -85.087941 140 14063ft 382kts
20-Sep-20 11:21 34.192430 -85.013969 141 13316ft 337kts
20-Sep-20 11:22 34.123606 -84.949739 140 13027ft 289kts
20-Sep-20 11:23 34.060897 -84.890240 141 11755ft 286kts
20-Sep-20 11:24 33.994519 -84.842044 172 10515ft 282kts
20-Sep-20 11:25 33.915072 -84.834284 174 9288ft 288kts
20-Sep-20 11:26 33.838713 -84.816213 139 8977ft 278kts
20-Sep-20 11:27 33.778602 -84.757899 141 7025ft 276kts
20-Sep-20 11:28 33.718551 -84.703700 141 5197ft 268kts
20-Sep-20 11:29 33.660550 -84.651964 140 4009ft 237kts
20-Sep-20 11:30 33.649352 -84.586066 87 3467ft 204kts
20-Sep-20 11:31 33.649602 -84.523438 87 2424ft 169kts
20-Sep-20 11:32 33.649577 -84.474217 87 1644ft 137kts
20-Sep-20 11:33 33.649545 -84.429768 88 1028ft 104kts
20-Sep-20 11:34 33.648116 -84.415805 196 1018ft 16kts
20-Sep-20 11:35 33.647911 -84.420891 270 1019ft 15kts
20-Sep-20 11:36 33.646048 -84.423368 179 1023ft 9kts
20-Sep-20 11:37 33.645435 -84.425458 270 1028ft 17kts
20-Sep-20 11:38 33.641383 -84.428066 179 1031ft 20kts
20-Sep-20 11:39 33.636545 -84.426942 92 1031ft 15kts
20-Sep-20 11:40 33.637296 -84.424561 265 1031ft 4kts

Navigation Log

Ident Type
Flight plan parsing failed, navigation log unavailable